sensor_id;sensor_type;location;lat;lon;timestamp;P1;durP1;ratioP1;P2;durP2;ratioP2
9094;SDS011;4583;49.796;9.902;2023-02-15T00:02:12;47.80;;;23.53;;
9094;SDS011;4583;49.796;9.902;2023-02-15T00:12:14;49.73;;;23.73;;
9094;SDS011;4583;49.796;9.902;2023-02-15T00:22:16;51.77;;;24.73;;
9094;SDS011;4583;49.796;9.902;2023-02-15T00:32:18;45.80;;;23.07;;
9094;SDS011;4583;49.796;9.902;2023-02-15T00:42:20;45.43;;;23.20;;
9094;SDS011;4583;49.796;9.902;2023-02-15T00:52:21;43.47;;;22.73;;
9094;SDS011;4583;49.796;9.902;2023-02-15T01:02:23;42.87;;;22.27;;
9094;SDS011;4583;49.796;9.902;2023-02-15T01:12:26;41.80;;;21.23;;
9094;SDS011;4583;49.796;9.902;2023-02-15T01:22:28;42.13;;;22.03;;
9094;SDS011;4583;49.796;9.902;2023-02-15T01:32:30;35.50;;;20.33;;
9094;SDS011;4583;49.796;9.902;2023-02-15T01:42:32;37.97;;;20.33;;
9094;SDS011;4583;49.796;9.902;2023-02-15T01:52:34;35.80;;;18.87;;
9094;SDS011;4583;49.796;9.902;2023-02-15T02:02:41;33.13;;;18.70;;
9094;SDS011;4583;49.796;9.902;2023-02-15T02:12:45;32.10;;;17.93;;
9094;SDS011;4583;49.796;9.902;2023-02-15T02:43:33;33.17;;;18.63;;
9094;SDS011;4583;49.796;9.902;2023-02-15T02:53:41;29.50;;;17.10;;
9094;SDS011;4583;49.796;9.902;2023-02-15T03:13:47;29.53;;;17.23;;
9094;SDS011;4583;49.796;9.902;2023-02-15T03:23:54;28.93;;;16.83;;
9094;SDS011;4583;49.796;9.902;2023-02-15T03:34:03;26.83;;;16.30;;
9094;SDS011;4583;49.796;9.902;2023-02-15T03:59:21;30.90;;;17.53;;
9094;SDS011;4583;49.796;9.902;2023-02-15T04:10:48;27.60;;;15.90;;
9094;SDS011;4583;49.796;9.902;2023-02-15T04:20:57;26.37;;;15.67;;
9094;SDS011;4583;49.796;9.902;2023-02-15T04:31:18;26.83;;;16.37;;
9094;SDS011;4583;49.796;9.902;2023-02-15T04:41:20;27.17;;;16.23;;
9094;SDS011;4583;49.796;9.902;2023-02-15T04:51:21;29.37;;;16.27;;
9094;SDS011;4583;49.796;9.902;2023-02-15T05:01:23;26.23;;;15.60;;
9094;SDS011;4583;49.796;9.902;2023-02-15T05:11:26;27.70;;;16.30;;
9094;SDS011;4583;49.796;9.902;2023-02-15T05:21:28;27.13;;;15.43;;
9094;SDS011;4583;49.796;9.902;2023-02-15T05:31:30;27.37;;;15.93;;
9094;SDS011;4583;49.796;9.902;2023-02-15T05:41:33;26.17;;;14.83;;
9094;SDS011;4583;49.796;9.902;2023-02-15T05:51:35;27.80;;;15.93;;
9094;SDS011;4583;49.796;9.902;2023-02-15T06:01:37;23.17;;;13.70;;
9094;SDS011;4583;49.796;9.902;2023-02-15T06:11:39;23.53;;;14.17;;
9094;SDS011;4583;49.796;9.902;2023-02-15T06:21:41;25.10;;;14.30;;
9094;SDS011;4583;49.796;9.902;2023-02-15T06:31:43;24.07;;;14.13;;
9094;SDS011;4583;49.796;9.902;2023-02-15T06:43:33;27.63;;;15.70;;
9094;SDS011;4583;49.796;9.902;2023-02-15T06:53:35;27.57;;;14.77;;
9094;SDS011;4583;49.796;9.902;2023-02-15T07:09:10;27.53;;;15.20;;
9094;SDS011;4583;49.796;9.902;2023-02-15T07:19:13;24.90;;;13.87;;
9094;SDS011;4583;49.796;9.902;2023-02-15T07:29:15;26.63;;;14.33;;
9094;SDS011;4583;49.796;9.902;2023-02-15T07:39:50;24.83;;;13.37;;
9094;SDS011;4583;49.796;9.902;2023-02-15T07:49:52;21.20;;;12.47;;
9094;SDS011;4583;49.796;9.902;2023-02-15T07:59:54;24.67;;;13.67;;
9094;SDS011;4583;49.796;9.902;2023-02-15T08:09:56;24.43;;;13.50;;
9094;SDS011;4583;49.796;9.902;2023-02-15T08:20:00;22.00;;;13.27;;
9094;SDS011;4583;49.796;9.902;2023-02-15T08:30:02;25.53;;;14.40;;
9094;SDS011;4583;49.796;9.902;2023-02-15T08:40:05;24.67;;;13.73;;
9094;SDS011;4583;49.796;9.902;2023-02-15T08:50:08;24.70;;;14.17;;
9094;SDS011;4583;49.796;9.902;2023-02-15T09:00:10;26.97;;;15.23;;
9094;SDS011;4583;49.796;9.902;2023-02-15T09:10:12;24.87;;;14.70;;
9094;SDS011;4583;49.796;9.902;2023-02-15T09:20:15;27.03;;;15.23;;
9094;SDS011;4583;49.796;9.902;2023-02-15T09:30:17;29.77;;;17.07;;
9094;SDS011;4583;49.796;9.902;2023-02-15T09:40:19;29.07;;;17.00;;
9094;SDS011;4583;49.796;9.902;2023-02-15T09:50:30;32.23;;;16.53;;
9094;SDS011;4583;49.796;9.902;2023-02-15T10:20:55;30.37;;;17.63;;
9094;SDS011;4583;49.796;9.902;2023-02-15T11:02:34;30.43;;;16.73;;
9094;SDS011;4583;49.796;9.902;2023-02-15T11:12:39;28.10;;;16.67;;
9094;SDS011;4583;49.796;9.902;2023-02-15T11:22:44;30.10;;;17.27;;
9094;SDS011;4583;49.796;9.902;2023-02-15T11:32:50;31.07;;;17.17;;
9094;SDS011;4583;49.796;9.902;2023-02-15T11:42:56;28.50;;;16.23;;
9094;SDS011;4583;49.796;9.902;2023-02-15T11:53:11;29.43;;;17.13;;
9094;SDS011;4583;49.796;9.902;2023-02-15T12:03:20;33.10;;;17.37;;
9094;SDS011;4583;49.796;9.902;2023-02-15T12:24:01;30.13;;;17.43;;
9094;SDS011;4583;49.796;9.902;2023-02-15T12:34:17;34.30;;;16.87;;
9094;SDS011;4583;49.796;9.902;2023-02-15T12:44:32;27.43;;;16.87;;
9094;SDS011;4583;49.796;9.902;2023-02-15T12:54:39;29.10;;;18.00;;
9094;SDS011;4583;49.796;9.902;2023-02-15T13:04:48;31.60;;;18.50;;
9094;SDS011;4583;49.796;9.902;2023-02-15T13:14:51;30.47;;;17.77;;
9094;SDS011;4583;49.796;9.902;2023-02-15T13:24:56;27.40;;;16.40;;
9094;SDS011;4583;49.796;9.902;2023-02-15T13:35:01;30.47;;;17.50;;
9094;SDS011;4583;49.796;9.902;2023-02-15T13:55:55;29.30;;;18.10;;
9094;SDS011;4583;49.796;9.902;2023-02-15T14:06:20;29.00;;;18.03;;
9094;SDS011;4583;49.796;9.902;2023-02-15T14:16:31;31.90;;;18.00;;
